createdAt,value
2019-01-05T10:06:17.596Z,1.01
2019-01-05T10:12:46.715Z,0.89
2019-01-05T10:19:10.819Z,0.75
2019-01-05T10:25:17.234Z,0.91
2019-01-05T10:31:45.978Z,0.74
2019-01-05T10:38:23.711Z,0.80
2019-01-05T10:44:34.188Z,0.77
2019-01-05T10:50:49.256Z,0.76
2019-01-05T10:56:51.268Z,0.65
2019-01-05T11:03:20.818Z,0.69
2019-01-05T11:09:36.858Z,0.69
2019-01-05T11:16:11.794Z,0.74
2019-01-05T11:23:05.843Z,0.59
2019-01-05T11:29:44.807Z,0.75
2019-01-05T11:36:03.232Z,0.75
2019-01-05T11:42:05.880Z,0.71
2019-01-05T11:48:32.644Z,0.79
2019-01-05T11:54:49.134Z,0.82
2019-01-05T12:01:15.155Z,0.81
2019-01-05T12:07:30.847Z,0.75
2019-01-05T12:14:06.876Z,0.71
2019-01-05T12:20:50.526Z,0.71
2019-01-05T12:27:09.861Z,0.67
2019-01-05T12:33:46.987Z,0.69
2019-01-05T12:40:23.555Z,0.72
2019-01-05T12:46:36.459Z,0.70
2019-01-05T12:52:55.969Z,0.76
2019-01-05T12:59:20.626Z,0.76
2019-01-05T13:05:46.010Z,0.69
2019-01-05T13:12:21.285Z,0.64
2019-01-05T13:18:54.485Z,0.72
2019-01-05T13:25:02.175Z,0.79
2019-01-05T13:31:14.259Z,0.72
2019-01-05T13:37:36.103Z,0.61
2019-01-05T13:44:01.936Z,0.66
2019-01-05T13:50:36.975Z,0.72
2019-01-05T13:56:20.641Z,0.62
2019-01-05T14:02:03.055Z,0.65
2019-01-05T14:07:40.363Z,0.69
2019-01-05T14:13:25.295Z,0.67
2019-01-05T14:19:03.346Z,0.67
2019-01-05T14:24:41.450Z,0.82
2019-01-05T14:30:20.507Z,0.75
2019-01-05T14:36:03.273Z,0.73
2019-01-05T14:42:01.463Z,0.74
2019-01-05T14:47:47.676Z,0.78
2019-01-05T14:53:26.449Z,0.76
2019-01-05T14:59:08.493Z,0.74
2019-01-05T15:04:46.334Z,0.75
2019-01-05T15:10:35.840Z,0.76
2019-01-05T15:16:14.190Z,0.71
2019-01-05T15:21:53.210Z,0.71
2019-01-05T15:27:41.398Z,0.81
2019-01-05T15:33:23.386Z,0.80
2019-01-05T15:39:01.800Z,0.82
2019-01-05T15:44:43.948Z,0.83
2019-01-05T15:50:29.695Z,0.86
2019-01-05T15:56:07.846Z,0.86
2019-01-05T16:02:01.750Z,0.91
2019-01-05T16:07:44.288Z,0.90
2019-01-05T16:13:23.242Z,0.93
2019-01-05T16:19:01.190Z,0.84
2019-01-05T16:24:40.930Z,0.95
2019-01-05T16:30:27.666Z,0.95
2019-01-05T16:36:05.366Z,0.97
2019-01-05T16:42:14.710Z,0.96
2019-01-05T16:48:13.509Z,0.95
2019-01-05T16:54:16.324Z,1.00
2019-01-05T16:59:52.861Z,1.00
2019-01-05T17:05:43.251Z,1.02
2019-01-05T17:37:29.286Z,1.02
2019-01-05T17:43:12.604Z,1.02
2019-01-05T17:48:55.350Z,1.07
2019-01-05T17:54:43.852Z,1.11
2019-01-05T18:00:23.942Z,1.09
2019-01-05T18:06:06.426Z,1.09
2019-01-05T18:11:51.346Z,1.12
2019-01-05T18:17:29.127Z,1.11
2019-01-05T18:23:11.058Z,1.11
2019-01-05T18:28:51.158Z,1.17
2019-01-05T18:34:49.214Z,1.21
2019-01-05T18:40:40.873Z,1.27
2019-01-05T18:46:19.299Z,1.29
2019-01-05T18:51:57.613Z,1.31
2019-01-05T18:57:35.704Z,1.34
2019-01-05T19:03:29.710Z,1.33
2019-01-05T19:09:07.899Z,1.34
2019-01-05T19:14:55.827Z,1.30
2019-01-05T19:20:44.994Z,1.29
2019-01-05T19:26:25.317Z,1.24
2019-01-05T19:32:09.082Z,1.21
2019-01-05T19:37:47.269Z,1.22
2019-01-05T19:43:25.483Z,1.21
2019-01-05T19:49:03.230Z,1.15
2019-01-05T19:54:41.748Z,1.09
2019-01-05T20:00:19.821Z,1.18
2019-01-05T20:05:59.297Z,1.25
2019-01-05T20:11:37.329Z,1.27
2019-01-05T20:17:12.556Z,1.27
2019-01-05T20:23:09.698Z,1.31
2019-01-05T20:28:47.674Z,1.28
2019-01-05T20:34:43.310Z,1.37
2019-01-05T20:40:30.669Z,1.37
2019-01-05T20:46:28.812Z,1.37
2019-01-05T20:52:14.886Z,1.39
2019-01-05T20:57:53.885Z,1.32
2019-01-05T21:03:31.947Z,1.37
2019-01-05T21:09:18.485Z,1.37
2019-01-05T21:14:58.360Z,1.42
2019-01-05T21:20:37.194Z,1.47
2019-01-05T21:26:15.220Z,1.47
2019-01-05T21:32:06.960Z,1.40
2019-01-05T21:37:44.968Z,1.38
2019-01-05T21:43:30.853Z,1.24
2019-01-05T21:49:20.653Z,1.16
2019-01-05T21:54:59.804Z,1.08
2019-01-05T22:00:38.324Z,1.08
2019-01-05T22:06:17.016Z,1.08
2019-01-05T22:12:05.257Z,1.11
2019-01-05T22:17:43.810Z,1.10
2019-01-05T22:23:23.612Z,1.19
2019-01-05T22:29:17.189Z,1.19
2019-01-05T22:34:54.771Z,1.25
2019-01-05T22:40:31.491Z,1.25
2019-01-05T22:46:09.610Z,1.27
2019-01-05T22:51:52.667Z,1.29
2019-01-05T22:57:34.494Z,1.33
2019-01-05T23:03:20.255Z,1.30
2019-01-05T23:08:58.651Z,1.38
2019-01-05T23:14:46.479Z,1.38
2019-01-05T23:20:28.222Z,1.38
2019-01-05T23:26:08.358Z,1.36
2019-01-05T23:31:46.302Z,1.34
2019-01-05T23:37:23.996Z,1.34
2019-01-05T23:43:02.163Z,1.39
2019-01-05T23:48:56.251Z,1.35
2019-01-05T23:54:50.851Z,1.35
